Time;durP1;ratioP1;P1;durP2;ratioP2;P2;SDS_P1;SDS_P2;PMS_P1;PMS_P2;Temp;Humidity;BMP_temperature;BMP_pressure;BME280_temperature;BME280_humidity;BME280_pressure;Samples;Min_cycle;Max_cycle;Signal;HPM_P1;HPM_P2
2021/04/20 00:01:53;;;;;;;23.52;14.27;;;7.40;73.80;;;;;;5064346;28;20024;-69
2021/04/20 00:04:19;;;;;;;23.00;14.02;;;7.40;73.90;;;;;;5042196;28;20019;-69
2021/04/20 00:06:44;;;;;;;23.73;14.30;;;7.30;73.70;;;;;;5044829;28;20068;-79
2021/04/20 00:09:10;;;;;;;26.10;14.55;;;7.20;73.80;;;;;;5057175;28;20501;-70
2021/04/20 00:11:37;;;;;;;21.10;13.60;;;7.10;74.00;;;;;;5051139;28;20074;-69
2021/04/20 00:14:08;;;;;;;21.25;13.70;;;7.10;74.20;;;;;;5050978;28;20028;-69
2021/04/20 00:16:34;;;;;;;22.98;14.05;;;7.10;74.50;;;;;;5051363;28;20090;-69
2021/04/20 00:19:01;;;;;;;23.45;13.70;;;7.10;74.50;;;;;;5051070;28;20033;-70
2021/04/20 00:21:27;;;;;;;23.00;13.45;;;7.10;74.60;;;;;;5051811;28;20099;-70
2021/04/20 00:23:53;;;;;;;21.27;13.20;;;7.10;74.60;;;;;;5050640;28;20493;-70
2021/04/20 00:26:18;;;;;;;21.35;13.73;;;7.00;74.70;;;;;;5050916;28;20475;-69
2021/04/20 00:28:44;;;;;;;23.52;13.32;;;7.00;74.70;;;;;;5047413;28;20079;-70
2021/04/20 00:31:10;;;;;;;21.08;12.90;;;7.00;74.70;;;;;;5055546;28;20025;-69
2021/04/20 00:33:35;;;;;;;21.17;13.02;;;7.00;74.90;;;;;;5050938;28;20029;-69
2021/04/20 00:36:01;;;;;;;22.38;12.93;;;7.10;75.10;;;;;;5050613;28;20031;-70
2021/04/20 00:38:27;;;;;;;22.05;12.95;;;7.10;75.10;;;;;;5050576;28;20091;-70
2021/04/20 00:40:52;;;;;;;23.45;12.65;;;7.20;74.90;;;;;;5050847;28;20021;-69
2021/04/20 00:43:31;;;;;;;21.77;11.98;;;7.10;74.80;;;;;;5050505;28;20045;-69
2021/04/20 00:45:56;;;;;;;21.35;12.95;;;7.20;74.80;;;;;;5050395;28;20129;-69
2021/04/20 00:48:22;;;;;;;19.65;11.50;;;7.20;74.80;;;;;;5061558;28;20120;-69
2021/04/20 00:50:48;;;;;;;21.30;12.40;;;7.20;74.90;;;;;;5064438;28;20021;-69
2021/04/20 00:53:13;;;;;;;23.42;12.32;;;7.20;75.00;;;;;;5049510;28;20021;-69
2021/04/20 00:55:39;;;;;;;20.13;12.73;;;7.20;75.00;;;;;;5050438;28;20029;-70
2021/04/20 00:58:05;;;;;;;19.92;12.18;;;7.30;74.90;;;;;;5052935;28;20035;-69
2021/04/20 01:00:32;;;;;;;21.10;12.15;;;7.30;75.00;;;;;;5052393;28;20104;-67
2021/04/20 01:02:58;;;;;;;22.05;13.15;;;7.30;74.80;;;;;;5058790;28;20516;-70
2021/04/20 01:05:36;;;;;;;18.92;11.77;;;7.30;75.00;;;;;;5049851;28;20116;-70
2021/04/20 01:08:07;;;;;;;20.40;12.10;;;7.30;75.00;;;;;;5049877;28;20029;-69
2021/04/20 01:10:35;;;;;;;20.95;12.43;;;7.20;74.90;;;;;;5063883;28;20029;-69
2021/04/20 01:13:03;;;;;;;21.98;11.70;;;7.20;75.10;;;;;;5050040;28;20127;-69
2021/04/20 01:15:30;;;;;;;19.15;12.05;;;7.10;75.10;;;;;;5046860;28;20482;-69
2021/04/20 01:17:55;;;;;;;18.45;11.80;;;7.00;75.10;;;;;;5030637;28;20386;-69
2021/04/20 01:20:21;;;;;;;17.95;12.18;;;7.00;75.10;;;;;;5049005;28;20039;-70
2021/04/20 01:22:48;;;;;;;22.88;13.68;;;7.00;75.00;;;;;;5050122;28;20066;-69
2021/04/20 01:25:15;;;;;;;21.85;13.85;;;6.90;75.20;;;;;;5050368;28;20159;-69
2021/04/20 01:27:42;;;;;;;23.35;14.02;;;6.80;75.10;;;;;;5049734;28;20056;-68
2021/04/20 01:30:10;;;;;;;21.42;13.18;;;6.70;75.30;;;;;;5057702;28;20081;-69
2021/04/20 01:32:38;;;;;;;21.13;13.70;;;6.70;75.50;;;;;;5069832;28;20025;-69
2021/04/20 01:35:06;;;;;;;26.30;14.55;;;6.60;75.60;;;;;;5053661;28;20025;-69
2021/04/20 01:37:32;;;;;;;26.60;15.48;;;6.50;75.80;;;;;;5049596;28;20120;-70
2021/04/20 01:39:58;;;;;;;28.65;15.27;;;6.40;75.80;;;;;;5049771;28;20502;-69
2021/04/20 01:42:24;;;;;;;28.00;16.00;;;6.40;76.00;;;;;;5049465;28;20477;-68
2021/04/20 01:44:49;;;;;;;28.63;16.73;;;6.40;76.20;;;;;;5049464;28;20024;-69
2021/04/20 01:47:15;;;;;;;26.15;15.88;;;6.40;76.20;;;;;;5049726;28;20389;-69
2021/04/20 01:49:42;;;;;;;26.63;16.63;;;6.30;76.00;;;;;;5057586;28;20064;-70
2021/04/20 01:52:08;;;;;;;30.48;17.73;;;6.20;76.10;;;;;;5049665;28;20051;-68
2021/04/20 01:54:34;;;;;;;30.85;17.05;;;6.10;76.10;;;;;;5043041;28;20498;-70
2021/04/20 01:57:01;;;;;;;31.15;16.85;;;6.00;76.20;;;;;;5038152;28;20111;-69
2021/04/20 01:59:27;;;;;;;29.13;17.38;;;6.00;76.40;;;;;;5050238;28;20505;-69
2021/04/20 02:01:54;;;;;;;31.88;16.85;;;5.90;76.60;;;;;;5072011;28;20021;-69
2021/04/20 02:04:19;;;;;;;29.67;16.13;;;5.80;76.70;;;;;;5065737;28;20024;-69
2021/04/20 02:06:47;;;;;;;32.05;15.98;;;5.90;76.90;;;;;;5043171;28;20021;-69
2021/04/20 02:09:13;;;;;;;26.88;15.98;;;5.90;76.90;;;;;;5048750;28;20056;-69
2021/04/20 02:11:39;;;;;;;32.35;17.50;;;5.90;77.00;;;;;;5049115;28;20029;-68
2021/04/20 02:14:04;;;;;;;31.58;18.33;;;5.90;76.80;;;;;;5048899;28;20040;-69
2021/04/20 02:16:30;;;;;;;28.42;17.23;;;5.90;76.70;;;;;;5049376;28;20032;-69
2021/04/20 02:18:59;;;;;;;33.40;18.98;;;5.90;76.70;;;;;;5049105;28;20032;-69
2021/04/20 02:21:25;;;;;;;33.45;17.92;;;5.90;76.80;;;;;;5048923;28;20033;-70
2021/04/20 02:23:52;;;;;;;31.33;17.73;;;5.90;76.70;;;;;;5048786;28;20025;-67
2021/04/20 02:26:38;;;;;;;32.80;18.27;;;5.90;76.70;;;;;;5044791;28;20401;-70
2021/04/20 02:29:09;;;;;;;32.90;18.85;;;5.90;76.90;;;;;;5057443;28;20481;-69
2021/04/20 02:31:42;;;;;;;30.02;17.42;;;5.90;77.30;;;;;;5033167;28;20486;-69
2021/04/20 02:34:10;;;;;;;30.65;17.85;;;5.90;76.70;;;;;;5029212;28;20017;-69
2021/04/20 02:36:37;;;;;;;30.80;17.13;;;5.80;76.70;;;;;;5062776;28;20032;-68
2021/04/20 02:39:04;;;;;;;34.05;18.85;;;5.80;76.90;;;;;;5047697;28;20490;-68
2021/04/20 02:41:30;;;;;;;31.23;18.27;;;5.80;77.60;;;;;;5042742;28;20032;-69
2021/04/20 02:43:58;;;;;;;33.50;18.95;;;5.80;77.20;;;;;;5039586;28;20029;-68
2021/04/20 02:46:24;;;;;;;31.58;18.58;;;5.80;77.20;;;;;;5046640;28;20036;-68
2021/04/20 02:48:50;;;;;;;34.58;18.38;;;5.80;77.00;;;;;;5052768;28;20029;-69
2021/04/20 02:51:17;;;;;;;30.05;17.20;;;5.90;77.10;;;;;;5052733;28;20035;-68
2021/04/20 02:53:45;;;;;;;32.67;18.83;;;5.90;77.10;;;;;;5053060;28;20044;-69
2021/04/20 02:56:17;;;;;;;32.70;17.95;;;5.90;77.00;;;;;;5052117;28;20106;-69
2021/04/20 02:58:44;;;;;;;31.85;17.10;;;5.90;76.90;;;;;;5052723;28;20040;-69
2021/04/20 03:01:21;;;;;;;31.73;17.42;;;5.90;76.90;;;;;;5056282;28;20034;-69
2021/04/20 03:03:48;;;;;;;29.27;17.27;;;5.90;76.80;;;;;;5041168;28;20720;-69
2021/04/20 03:06:15;;;;;;;27.95;16.30;;;5.90;76.70;;;;;;5059866;28;20456;-69
2021/04/20 03:08:42;;;;;;;25.40;14.95;;;5.70;76.60;;;;;;5052690;28;20029;-68
2021/04/20 03:11:14;;;;;;;23.70;13.90;;;5.70;76.70;;;;;;5051447;28;20028;-69
2021/04/20 03:13:42;;;;;;;22.00;13.45;;;5.70;76.90;;;;;;5052604;28;20649;-69
2021/04/20 03:16:10;;;;;;;22.23;13.05;;;5.70;76.90;;;;;;5052239;28;20028;-70
2021/04/20 03:18:36;;;;;;;22.77;13.38;;;5.70;76.90;;;;;;5052495;28;20037;-70
2021/04/20 03:21:05;;;;;;;17.55;10.65;;;5.80;76.80;;;;;;5052423;28;20388;-70
2021/04/20 03:23:33;;;;;;;17.90;10.88;;;5.70;76.50;;;;;;5052527;28;20692;-70
2021/04/20 03:26:00;;;;;;;17.88;10.95;;;5.70;76.40;;;;;;5052099;28;20119;-69
2021/04/20 03:28:26;;;;;;;15.15;9.77;;;5.70;76.30;;;;;;5056242;28;20035;-70
2021/04/20 03:30:54;;;;;;;16.48;11.10;;;5.70;76.40;;;;;;5065948;28;20036;-69
2021/04/20 03:33:37;;;;;;;17.08;10.25;;;5.70;76.50;;;;;;5052422;28;20029;-69
2021/04/20 03:36:14;;;;;;;15.27;10.40;;;5.70;76.40;;;;;;5051584;28;20616;-70
2021/04/20 03:38:45;;;;;;;18.25;10.95;;;5.80;76.20;;;;;;5052294;28;20461;-69
2021/04/20 03:41:25;;;;;;;15.65;10.75;;;5.80;75.90;;;;;;5051652;28;20481;-69
2021/04/20 03:43:55;;;;;;;17.30;10.80;;;5.80;75.90;;;;;;5051661;28;20485;-67
2021/04/20 03:46:23;;;;;;;16.73;11.40;;;5.80;75.70;;;;;;5052140;28;20481;-67
2021/04/20 03:48:59;;;;;;;14.88;10.05;;;5.80;75.60;;;;;;5052059;28;20028;-67
2021/04/20 03:51:27;;;;;;;17.52;10.88;;;5.70;75.70;;;;;;5051876;28;20021;-67
2021/04/20 03:54:03;;;;;;;15.20;10.20;;;5.70;75.80;;;;;;5051853;28;20052;-67
2021/04/20 03:56:30;;;;;;;15.07;10.32;;;5.70;75.80;;;;;;5066787;28;20029;-67
2021/04/20 03:58:59;;;;;;;16.20;10.57;;;5.70;75.70;;;;;;5058541;28;20162;-68
2021/04/20 04:01:27;;;;;;;15.13;10.00;;;5.70;75.50;;;;;;5063037;28;20017;-66
2021/04/20 04:03:54;;;;;;;16.33;9.65;;;5.60;75.50;;;;;;5052644;28;20025;-68
2021/04/20 04:06:21;;;;;;;15.85;9.90;;;5.60;75.50;;;;;;5063253;28;20158;-70
2021/04/20 04:08:49;;;;;;;13.68;9.10;;;5.60;75.40;;;;;;5058245;28;20052;-67
2021/04/20 04:11:15;;;;;;;13.88;8.43;;;5.50;75.30;;;;;;5051647;28;20370;-67
2021/04/20 04:13:43;;;;;;;13.75;9.00;;;5.40;75.30;;;;;;5051477;28;20088;-67
2021/04/20 04:16:12;;;;;;;13.52;8.57;;;5.30;75.40;;;;;;5043189;28;20030;-67
2021/04/20 04:18:41;;;;;;;13.57;8.85;;;5.20;75.70;;;;;;5051465;28;20028;-67
2021/04/20 04:21:08;;;;;;;12.88;8.70;;;5.20;75.80;;;;;;5068104;28;20032;-67
2021/04/20 04:23:46;;;;;;;12.77;9.18;;;5.20;76.00;;;;;;5051424;28;20477;-66
2021/04/20 04:26:15;;;;;;;14.00;9.40;;;5.20;76.10;;;;;;5051196;28;20040;-67
2021/04/20 04:28:46;;;;;;;14.63;9.60;;;5.30;76.00;;;;;;5043347;28;20049;-67
2021/04/20 04:31:14;;;;;;;14.50;10.43;;;5.30;75.90;;;;;;5060359;28;20021;-67
2021/04/20 04:33:41;;;;;;;12.95;9.27;;;5.40;75.50;;;;;;5048296;28;20022;-67
2021/04/20 04:36:09;;;;;;;15.20;10.18;;;5.30;75.40;;;;;;5031058;28;20529;-67
2021/04/20 04:38:37;;;;;;;15.23;10.52;;;5.30;75.70;;;;;;5049745;28;20029;-70
2021/04/20 04:41:04;;;;;;;13.98;9.68;;;5.30;75.60;;;;;;5052697;28;20105;-71
2021/04/20 04:43:29;;;;;;;14.75;10.00;;;5.20;75.60;;;;;;5050842;28;20091;-69
2021/04/20 04:45:56;;;;;;;18.10;11.00;;;5.10;75.60;;;;;;5050937;28;20025;-70
2021/04/20 04:48:24;;;;;;;16.52;10.50;;;5.10;76.50;;;;;;5047053;28;20033;-67
2021/04/20 04:50:51;;;;;;;16.67;10.65;;;5.10;76.20;;;;;;5030741;28;20033;-67
2021/04/20 04:53:18;;;;;;;16.90;10.23;;;5.20;76.20;;;;;;5030578;28;20025;-67
2021/04/20 04:55:43;;;;;;;18.58;10.80;;;5.20;76.10;;;;;;5050434;28;20108;-67
2021/04/20 04:58:09;;;;;;;18.83;10.45;;;5.20;76.00;;;;;;5047078;28;20044;-67
2021/04/20 05:00:36;;;;;;;18.20;11.18;;;5.30;75.90;;;;;;5058383;28;20024;-67
2021/04/20 05:03:06;;;;;;;16.48;10.27;;;5.30;75.70;;;;;;5043430;28;20032;-67
2021/04/20 05:05:35;;;;;;;17.23;11.05;;;5.30;76.00;;;;;;5048294;28;20058;-67
2021/04/20 05:08:01;;;;;;;20.45;11.07;;;5.30;76.00;;;;;;5062248;28;20091;-67
2021/04/20 05:10:27;;;;;;;17.65;11.00;;;5.40;76.00;;;;;;5030524;28;20075;-67
2021/04/20 05:12:53;;;;;;;16.85;10.73;;;5.40;76.00;;;;;;5050738;28;20053;-67
2021/04/20 05:15:21;;;;;;;14.35;10.18;;;5.50;76.10;;;;;;5050816;28;20087;-67
2021/04/20 05:17:47;;;;;;;16.05;10.57;;;5.50;75.90;;;;;;5050905;28;20156;-67
2021/04/20 05:20:18;;;;;;;29.50;17.30;;;5.60;75.80;;;;;;5050786;28;20025;-67
2021/04/20 05:22:45;;;;;;;18.27;11.80;;;5.60;75.90;;;;;;5051113;28;20102;-67
2021/04/20 05:25:14;;;;;;;19.50;12.20;;;5.60;75.60;;;;;;5050242;28;20024;-67
2021/04/20 05:27:40;;;;;;;19.95;11.98;;;5.60;75.70;;;;;;5050660;28;20025;-68
2021/04/20 05:30:07;;;;;;;21.15;12.93;;;5.60;75.90;;;;;;5069914;28;20070;-68
2021/04/20 05:32:36;;;;;;;22.30;13.48;;;5.70;75.90;;;;;;5061764;28;20021;-71
2021/04/20 05:35:03;;;;;;;21.73;13.48;;;5.70;75.90;;;;;;5050617;28;20031;-68
2021/04/20 05:37:40;;;;;;;19.30;12.25;;;5.70;76.00;;;;;;5052022;28;20040;-71
2021/04/20 05:40:18;;;;;;;23.05;12.57;;;5.80;76.10;;;;;;5050732;28;20029;-68
2021/04/20 05:42:44;;;;;;;18.70;11.52;;;5.80;76.10;;;;;;5050216;28;20028;-68
2021/04/20 05:45:14;;;;;;;19.45;11.13;;;5.80;75.90;;;;;;5050497;28;20024;-68
2021/04/20 05:47:42;;;;;;;19.20;12.18;;;5.80;76.00;;;;;;5050598;28;20021;-68
2021/04/20 05:50:21;;;;;;;20.33;12.48;;;5.80;76.70;;;;;;5050583;28;20067;-68
2021/04/20 05:52:46;;;;;;;25.65;14.27;;;5.90;76.30;;;;;;5050481;28;20051;-68
2021/04/20 05:55:13;;;;;;;27.52;14.98;;;5.90;76.20;;;;;;5050439;28;20021;-68
2021/04/20 05:57:39;;;;;;;28.17;15.80;;;6.00;76.00;;;;;;5050125;28;20033;-69
2021/04/20 06:00:07;;;;;;;31.05;16.70;;;6.00;75.90;;;;;;5050339;28;20507;-69
2021/04/20 06:02:36;;;;;;;32.10;17.55;;;6.10;76.10;;;;;;5066635;28;20033;-68
2021/04/20 06:05:07;;;;;;;32.55;18.85;;;6.10;76.00;;;;;;5051230;28;20495;-71
2021/04/20 06:07:35;;;;;;;31.77;17.30;;;6.10;76.00;;;;;;5050295;28;20385;-67
2021/04/20 06:10:08;;;;;;;33.30;17.27;;;6.10;76.00;;;;;;5037640;28;20025;-67
2021/04/20 06:12:38;;;;;;;30.08;16.65;;;6.10;76.30;;;;;;5030296;28;20097;-68
2021/04/20 06:15:09;;;;;;;32.03;18.42;;;6.10;76.30;;;;;;5030115;28;20120;-70
2021/04/20 06:17:36;;;;;;;38.63;19.83;;;6.20;76.30;;;;;;5030543;28;20228;-68
2021/04/20 06:20:04;;;;;;;39.85;22.50;;;6.20;76.30;;;;;;5035116;28;20032;-71
2021/04/20 06:22:30;;;;;;;46.33;23.90;;;6.30;76.50;;;;;;5054281;28;20063;-68
2021/04/20 06:24:57;;;;;;;48.70;24.17;;;6.30;76.30;;;;;;5050638;28;20037;-72
2021/04/20 06:27:23;;;;;;;43.30;23.52;;;6.40;76.30;;;;;;5047780;28;20032;-68
2021/04/20 06:29:49;;;;;;;41.63;23.80;;;6.40;76.30;;;;;;5038336;28;20076;-67
2021/04/20 06:32:15;;;;;;;48.10;24.83;;;6.40;76.40;;;;;;5049123;28;20486;-68
2021/04/20 06:34:41;;;;;;;40.83;22.90;;;6.30;76.40;;;;;;5047982;28;20074;-68
2021/04/20 06:37:09;;;;;;;39.60;22.25;;;6.30;76.60;;;;;;5044701;28;20024;-68
2021/04/20 06:39:36;;;;;;;41.88;21.25;;;6.40;76.70;;;;;;5060951;28;20060;-67
2021/04/20 06:42:06;;;;;;;43.17;21.92;;;6.40;76.90;;;;;;5053537;28;20053;-67
2021/04/20 06:44:53;;;;;;;43.70;22.95;;;6.50;76.80;;;;;;5052241;28;20171;-67
2021/04/20 06:47:50;;;;;;;40.88;21.90;;;6.60;76.90;;;;;;5055124;28;20028;-69
2021/04/20 06:50:17;;;;;;;39.45;21.50;;;6.70;76.90;;;;;;5052294;28;20112;-70
2021/04/20 06:52:46;;;;;;;38.90;21.15;;;6.80;76.70;;;;;;5034849;28;20025;-67
2021/04/20 06:55:20;;;;;;;37.03;20.73;;;6.90;76.50;;;;;;5050364;28;20127;-68
2021/04/20 06:58:03;;;;;;;38.42;20.83;;;7.00;76.40;;;;;;5050809;28;20033;-68
2021/04/20 07:00:34;;;;;;;33.08;19.42;;;7.10;76.50;;;;;;5053625;28;20032;-68
2021/04/20 07:03:22;;;;;;;33.35;19.58;;;7.30;76.50;;;;;;5053491;28;20033;-68
2021/04/20 07:06:20;;;;;;;34.05;19.63;;;7.30;76.40;;;;;;5051927;28;20090;-69
2021/04/20 07:08:53;;;;;;;33.65;19.55;;;7.60;75.80;;;;;;5045070;28;20112;-69
2021/04/20 07:11:19;;;;;;;33.60;20.85;;;7.90;75.40;;;;;;5058800;28;20127;-69
2021/04/20 07:13:48;;;;;;;43.92;22.48;;;8.00;75.20;;;;;;5069996;28;20032;-68
2021/04/20 07:16:28;;;;;;;37.95;21.98;;;8.20;75.10;;;;;;5053404;28;20386;-69
2021/04/20 07:19:07;;;;;;;37.25;21.80;;;8.40;75.20;;;;;;5053091;28;20044;-70
2021/04/20 07:21:52;;;;;;;39.05;21.05;;;8.70;75.50;;;;;;5045487;28;20044;-68
2021/04/20 07:24:27;;;;;;;34.80;20.30;;;9.00;75.00;;;;;;5052282;28;20404;-72
2021/04/20 07:27:23;;;;;;;38.20;21.38;;;9.30;74.40;;;;;;5052932;28;20029;-70
2021/04/20 07:30:18;;;;;;;36.83;21.25;;;9.50;74.80;;;;;;5060577;28;20029;-68
2021/04/20 07:33:14;;;;;;;37.60;21.52;;;9.90;73.70;;;;;;5069804;28;20481;-67
2021/04/20 07:35:48;;;;;;;37.08;20.00;;;10.10;73.10;;;;;;5068931;28;20028;-68
2021/04/20 07:38:35;;;;;;;35.63;20.63;;;10.30;73.50;;;;;;5069325;28;20025;-68
2021/04/20 07:41:10;;;;;;;41.38;22.67;;;10.40;72.70;;;;;;5037589;28;20041;-68
2021/04/20 07:43:52;;;;;;;37.83;21.38;;;10.50;72.40;;;;;;5049572;28;20025;-68
2021/04/20 07:46:33;;;;;;;43.30;21.70;;;10.70;72.70;;;;;;5071494;28;20029;-68
2021/04/20 07:49:12;;;;;;;36.83;20.65;;;10.90;72.80;;;;;;5051062;28;20025;-70
2021/04/20 07:52:22;;;;;;;33.47;21.33;;;11.20;72.20;;;;;;5052668;28;20110;-69
2021/04/20 07:55:15;;;;;;;36.20;20.80;;;11.50;71.80;;;;;;5032279;28;20504;-68
2021/04/20 07:57:47;;;;;;;36.20;21.83;;;11.70;71.80;;;;;;5052082;28;20028;-67
2021/04/20 08:00:13;;;;;;;;;;;11.90;71.20;;;;;;5062338;28;20036;-68
2021/04/20 08:02:50;;;;;;;38.53;20.70;;;12.10;71.40;;;;;;5060596;28;19904;-68
2021/04/20 08:05:29;;;;;;;34.83;20.13;;;12.40;71.30;;;;;;5051402;28;20690;-68
2021/04/20 08:07:55;;;;;;;33.17;20.20;;;12.60;70.80;;;;;;5062991;28;20029;-69
2021/04/20 08:10:25;;;;;;;32.13;19.13;;;12.60;71.20;;;;;;5072374;28;20469;-68
2021/04/20 08:12:53;;;;;;;32.10;19.42;;;12.90;71.30;;;;;;5072414;28;20017;-68
2021/04/20 08:15:27;;;;;;;35.33;19.77;;;13.10;70.60;;;;;;5068948;28;20059;-68
2021/04/20 08:18:00;;;;;;;29.52;18.90;;;13.50;70.10;;;;;;5051714;28;20025;-69
2021/04/20 08:20:26;;;;;;;26.38;17.10;;;13.60;69.60;;;;;;5039719;28;20128;-71
2021/04/20 08:22:55;;;;;;;27.45;16.48;;;13.90;69.40;;;;;;5032270;28;20030;-69
2021/04/20 08:25:53;;;;;;;25.70;15.90;;;14.20;69.20;;;;;;5031833;28;20025;-68
2021/04/20 08:28:49;;;;;;;30.05;18.20;;;14.50;68.50;;;;;;5028439;28;20069;-68
2021/04/20 08:31:41;;;;;;;29.92;17.15;;;15.00;67.80;;;;;;5031611;28;20022;-68
2021/04/20 08:34:33;;;;;;;;;;;15.30;66.60;;;;;;5032244;28;20059;-68
2021/04/20 08:37:06;;;;;;;21.80;13.98;;;15.40;65.20;;;;;;5030842;28;20347;-68
2021/04/20 08:39:53;;;;;;;22.42;14.13;;;15.50;65.50;;;;;;5040061;28;20029;-68
2021/04/20 08:43:00;;;;;;;24.95;13.57;;;15.80;64.60;;;;;;5046844;28;20029;-68
2021/04/20 08:45:36;;;;;;;18.48;12.00;;;16.30;64.90;;;;;;5029690;28;20520;-69
2021/04/20 08:48:18;;;;;;;17.08;11.55;;;16.90;64.60;;;;;;5051351;28;20021;-68
2021/04/20 08:51:15;;;;;;;14.65;9.93;;;17.40;63.20;;;;;;5046354;28;20028;-67
2021/04/20 08:54:08;;;;;;;13.13;8.77;;;17.80;61.70;;;;;;5021088;28;20387;-68
2021/04/20 08:56:59;;;;;;;16.52;10.95;;;18.10;60.40;;;;;;5050431;28;20338;-67
2021/04/20 08:59:37;;;;;;;17.65;12.07;;;18.30;59.50;;;;;;5068580;28;21316;-67
2021/04/20 09:02:32;;;;;;;18.27;11.77;;;18.80;58.70;;;;;;5065218;28;20104;-68
2021/04/20 09:05:14;;;;;;;20.75;13.32;;;19.50;58.10;;;;;;5023422;28;20072;-68
2021/04/20 09:07:56;;;;;;;17.77;12.10;;;20.30;55.10;;;;;;5046881;28;20060;-68
2021/04/20 09:10:33;;;;;;;17.15;11.43;;;21.00;53.10;;;;;;5053724;28;20032;-68
2021/04/20 09:13:11;;;;;;;17.73;11.55;;;21.90;51.60;;;;;;5063544;28;20013;-68
2021/04/20 09:15:42;;;;;;;20.00;12.57;;;22.80;49.80;;;;;;5050408;28;20118;-68
2021/04/20 09:18:13;;;;;;;23.52;12.05;;;23.50;48.50;;;;;;5050108;28;20032;-69
2021/04/20 09:20:48;;;;;;;14.43;9.85;;;24.20;47.20;;;;;;5067425;28;20485;-68
2021/04/20 09:23:43;;;;;;;16.58;10.65;;;24.80;45.80;;;;;;5067211;28;20032;-68
2021/04/20 09:26:40;;;;;;;17.17;10.98;;;25.30;45.00;;;;;;5049980;28;20373;-71
2021/04/20 09:29:19;;;;;;;16.63;10.65;;;26.00;44.10;;;;;;5058853;28;20033;-69
2021/04/20 09:32:07;;;;;;;19.70;13.40;;;26.20;42.90;;;;;;5049362;28;20021;-70
2021/04/20 09:34:42;;;;;;;21.08;12.65;;;26.40;43.10;;;;;;5053177;28;20075;-70
2021/04/20 09:37:08;;;;;;;19.95;13.25;;;26.50;42.50;;;;;;5032181;28;20478;-71
2021/04/20 09:39:39;;;;;;;24.15;15.30;;;26.50;42.80;;;;;;5049516;28;20485;-69
2021/04/20 09:42:07;;;;;;;19.42;13.27;;;26.20;41.80;;;;;;5050039;28;20027;-71
2021/04/20 09:45:00;;;;;;;18.45;12.95;;;26.00;41.90;;;;;;5046580;28;20024;-70
2021/04/20 09:47:35;;;;;;;;;;;25.60;43.00;;;;;;5058248;28;20024;-70
2021/04/20 09:50:04;;;;;;;17.75;12.70;;;24.50;45.70;;;;;;5065438;28;19959;-71
2021/04/20 09:52:57;;;;;;;20.25;13.85;;;23.20;46.90;;;;;;5064505;28;20054;-71
2021/04/20 09:55:41;;;;;;;19.98;13.77;;;22.10;47.90;;;;;;5065765;28;20025;-71
2021/04/20 09:58:08;;;;;;;23.38;13.70;;;21.20;49.30;;;;;;5050271;28;20025;-70
2021/04/20 10:00:34;;;;;;;20.40;13.63;;;20.60;50.00;;;;;;5044418;28;20060;-71
2021/04/20 10:03:18;;;;;;;19.42;12.80;;;20.10;50.40;;;;;;5050970;28;20025;-69
2021/04/20 10:05:45;;;;;;;20.33;13.38;;;20.10;50.60;;;;;;5043181;28;20029;-69
2021/04/20 10:08:35;;;;;;;19.40;13.35;;;20.30;50.90;;;;;;5053187;28;20033;-70
2021/04/20 10:11:26;;;;;;;18.25;12.27;;;20.40;50.50;;;;;;5038458;28;20029;-70
2021/04/20 10:14:21;;;;;;;20.52;12.23;;;20.20;51.00;;;;;;5069659;28;20033;-69
2021/04/20 10:16:52;;;;;;;47.90;32.10;;;20.00;50.90;;;;;;5037266;28;20052;-71
2021/04/20 10:19:30;;;;;;;21.07;13.70;;;19.80;51.30;;;;;;5058221;28;20029;-70
2021/04/20 10:22:17;;;;;;;19.70;13.43;;;19.60;51.00;;;;;;5046655;28;20279;-71
2021/04/20 10:24:51;;;;;;;21.83;14.70;;;19.40;50.50;;;;;;5066126;28;20025;-70
2021/04/20 10:27:21;;;;;;;21.65;14.85;;;18.80;49.50;;;;;;5065964;28;20063;-70
2021/04/20 10:30:14;;;;;;;21.58;14.18;;;18.20;49.70;;;;;;5050044;28;20037;-70
2021/04/20 10:32:45;;;;;;;20.00;12.13;;;18.00;51.00;;;;;;5059946;28;20033;-69
2021/04/20 10:35:18;;;;;;;20.73;13.30;;;18.10;51.70;;;;;;5048894;28;20020;-70
2021/04/20 10:37:47;;;;;;;20.15;12.52;;;18.40;51.80;;;;;;5049160;28;20047;-70
2021/04/20 10:40:29;;;;;;;19.65;13.20;;;18.60;51.40;;;;;;5049086;28;20116;-70
2021/04/20 10:42:55;;;;;;;18.38;11.95;;;19.00;51.60;;;;;;5038820;28;20482;-70
2021/04/20 10:45:27;;;;;;;18.65;12.77;;;19.30;51.50;;;;;;5060192;28;20059;-69
2021/04/20 10:47:54;;;;;;;20.48;12.57;;;19.70;51.20;;;;;;5066423;28;20059;-69
2021/04/20 10:50:29;;;;;;;19.85;12.35;;;19.90;50.60;;;;;;5049129;28;20113;-69
2021/04/20 10:53:02;;;;;;;19.77;12.43;;;19.80;50.10;;;;;;5049587;28;20029;-69
2021/04/20 10:55:30;;;;;;;17.05;11.27;;;19.60;50.40;;;;;;5048568;28;20135;-69
2021/04/20 10:57:58;;;;;;;17.52;12.30;;;19.30;50.40;;;;;;5049603;28;20056;-69
2021/04/20 11:00:27;;;;;;;17.73;11.75;;;19.00;50.50;;;;;;5048513;28;20021;-69
2021/04/20 11:02:56;;;;;;;18.45;11.82;;;18.90;50.80;;;;;;5040227;28;20033;-69
2021/04/20 11:05:24;;;;;;;20.00;11.73;;;18.70;50.50;;;;;;5052749;28;20032;-69
2021/04/20 11:07:51;;;;;;;15.30;10.93;;;18.70;50.60;;;;;;5053370;28;20024;-69
2021/04/20 11:10:18;;;;;;;16.77;11.50;;;18.70;50.60;;;;;;5060580;28;20041;-69
2021/04/20 11:12:43;;;;;;;15.50;10.57;;;18.50;50.50;;;;;;5045298;28;20017;-69
2021/04/20 11:15:14;;;;;;;16.13;11.70;;;18.40;50.40;;;;;;5054009;28;20021;-69
2021/04/20 11:17:48;;;;;;;16.30;11.02;;;18.20;50.60;;;;;;5052553;28;20025;-69
2021/04/20 11:20:31;;;;;;;17.80;11.07;;;18.20;50.40;;;;;;5052466;28;20172;-69
2021/04/20 11:23:09;;;;;;;;;;;18.30;50.30;;;;;;5053466;28;20235;-69
2021/04/20 11:25:50;;;;;;;16.33;10.75;;;18.10;51.70;;;;;;5049526;28;19915;-69
2021/04/20 11:28:43;;;;;;;18.00;11.70;;;18.20;51.20;;;;;;5069066;28;20021;-69
2021/04/20 11:31:12;;;;;;;17.20;11.50;;;18.30;51.00;;;;;;5069295;28;20024;-69
2021/04/20 11:34:10;;;;;;;16.45;11.25;;;18.50;50.90;;;;;;5052820;28;20021;-69
2021/04/20 11:36:49;;;;;;;15.55;10.50;;;18.70;51.00;;;;;;5041522;28;20040;-69
2021/04/20 11:39:27;;;;;;;15.77;11.05;;;18.90;50.60;;;;;;5052394;28;20071;-69
2021/04/20 11:42:01;;;;;;;16.48;11.50;;;19.10;49.90;;;;;;5052181;28;20450;-69
2021/04/20 11:44:37;;;;;;;18.70;11.85;;;19.50;50.10;;;;;;5048595;28;20528;-69
2021/04/20 11:47:07;;;;;;;15.07;10.60;;;19.80;49.80;;;;;;5052096;28;20083;-69
2021/04/20 11:49:34;;;;;;;15.50;10.07;;;20.10;48.90;;;;;;5052217;28;20032;-69
2021/04/20 11:52:00;;;;;;;17.65;10.02;;;20.20;48.40;;;;;;5052051;28;20029;-69
2021/04/20 11:54:30;;;;;;;14.57;10.35;;;20.30;48.10;;;;;;5053555;28;20024;-69
2021/04/20 11:57:01;;;;;;;15.68;10.05;;;20.30;48.20;;;;;;5039195;28;20025;-69
2021/04/20 11:59:28;;;;;;;15.98;11.13;;;20.40;48.00;;;;;;5032461;28;20032;-69
2021/04/20 12:01:55;;;;;;;15.68;11.23;;;20.50;47.20;;;;;;5043641;28;20025;-69
2021/04/20 12:04:34;;;;;;;15.75;11.00;;;20.50;47.10;;;;;;5042998;28;20025;-70
2021/04/20 12:07:01;;;;;;;16.92;11.82;;;20.50;47.00;;;;;;5044644;28;20033;-69
2021/04/20 12:09:33;;;;;;;13.32;9.93;;;20.20;46.30;;;;;;5051901;28;20035;-69
2021/04/20 12:12:00;;;;;;;14.82;10.02;;;20.20;47.20;;;;;;5062857;28;20116;-69
2021/04/20 12:14:28;;;;;;;15.65;10.07;;;20.10;47.40;;;;;;5051934;28;20063;-69
2021/04/20 12:16:59;;;;;;;16.48;9.25;;;20.00;47.40;;;;;;5051370;28;20477;-69
2021/04/20 12:19:28;;;;;;;15.63;10.57;;;19.90;47.10;;;;;;5050845;28;20065;-69
2021/04/20 12:21:56;;;;;;;12.40;9.32;;;19.80;46.90;;;;;;5068362;28;20501;-72
2021/04/20 12:24:26;;;;;;;16.85;10.38;;;19.80;47.30;;;;;;5051046;28;20089;-72
2021/04/20 12:26:57;;;;;;;13.90;10.52;;;20.00;47.90;;;;;;5043978;28;20053;-71
2021/04/20 12:29:26;;;;;;;17.77;10.85;;;20.30;47.40;;;;;;5045851;28;20029;-72
2021/04/20 12:31:52;;;;;;;17.77;12.05;;;20.60;47.30;;;;;;5050681;28;20017;-71
2021/04/20 12:34:31;;;;;;;15.38;10.63;;;20.70;47.00;;;;;;5060175;28;20515;-72
2021/04/20 12:37:03;;;;;;;16.15;11.38;;;20.70;47.00;;;;;;5056960;28;20055;-72
2021/04/20 12:39:52;;;;;;;21.75;11.05;;;20.70;46.90;;;;;;5051431;28;20033;-69
2021/04/20 12:42:21;;;;;;;15.32;10.52;;;20.70;47.50;;;;;;5053262;28;20072;-69
2021/04/20 12:44:52;;;;;;;15.23;10.80;;;20.60;46.60;;;;;;5067466;28;20490;-69
2021/04/20 12:47:18;;;;;;;16.38;10.90;;;20.30;46.30;;;;;;5049109;28;20044;-69
2021/04/20 12:49:48;;;;;;;21.08;11.27;;;20.00;46.80;;;;;;5051300;28;20668;-69
2021/04/20 12:52:18;;;;;;;14.32;10.88;;;19.80;47.10;;;;;;5050333;28;20109;-69
2021/04/20 12:54:51;;;;;;;15.93;10.57;;;19.70;47.10;;;;;;5051345;28;20071;-70
2021/04/20 12:57:19;;;;;;;14.18;10.23;;;19.50;46.80;;;;;;5051272;28;20090;-69
2021/04/20 12:59:56;;;;;;;14.95;10.52;;;19.20;47.00;;;;;;5050981;28;20029;-70
2021/04/20 13:02:24;;;;;;;15.70;10.90;;;18.90;47.00;;;;;;5039870;28;20045;-70